createdAt,value
2023-05-02T00:00:40.329Z,4.10
2023-05-02T00:01:42.979Z,3.50
2023-05-02T00:02:46.291Z,4.15
2023-05-02T00:03:48.837Z,3.67
2023-05-02T00:04:51.541Z,3.45
2023-05-02T00:05:53.813Z,3.78
2023-05-02T00:06:56.194Z,4.05
2023-05-02T00:07:58.737Z,3.70
2023-05-02T00:09:01.134Z,3.83
2023-05-02T00:10:03.595Z,3.60
2023-05-02T00:11:06.140Z,3.47
2023-05-02T00:12:08.390Z,3.67
2023-05-02T00:13:10.812Z,3.45
2023-05-02T00:14:13.345Z,3.67
2023-05-02T00:15:15.721Z,3.35
2023-05-02T00:16:18.420Z,3.72
2023-05-02T00:17:21.465Z,3.85
2023-05-02T00:18:24.550Z,4.15
2023-05-02T00:19:26.845Z,3.58
2023-05-02T00:20:29.275Z,3.60
2023-05-02T00:21:33.114Z,3.75
2023-05-02T00:22:36.213Z,3.33
2023-05-02T00:23:38.626Z,3.70
2023-05-02T00:24:41.029Z,3.42
2023-05-02T00:25:46.691Z,3.35
2023-05-02T00:26:50.001Z,3.08
2023-05-02T00:27:53.061Z,3.58
2023-05-02T00:28:55.427Z,3.47
2023-05-02T00:29:59.815Z,3.20
2023-05-02T00:31:02.617Z,3.70
2023-05-02T00:32:06.299Z,3.38
2023-05-02T00:33:08.675Z,3.40
2023-05-02T00:34:11.061Z,3.15
2023-05-02T00:35:13.413Z,3.38
2023-05-02T00:36:17.258Z,3.42
2023-05-02T00:37:20.243Z,3.15
2023-05-02T00:38:22.561Z,3.58
2023-05-02T00:39:25.000Z,3.80
2023-05-02T00:40:27.281Z,3.67
2023-05-02T00:41:29.688Z,3.88
2023-05-02T00:42:36.212Z,3.70
2023-05-02T00:43:41.699Z,3.20
2023-05-02T00:44:44.665Z,3.47
2023-05-02T00:45:47.443Z,3.33
2023-05-02T00:46:50.217Z,3.53
2023-05-02T00:47:52.741Z,3.63
2023-05-02T00:48:55.066Z,3.35
2023-05-02T00:49:58.130Z,3.70
2023-05-02T00:51:05.080Z,3.35
2023-05-02T00:52:09.106Z,3.33
2023-05-02T00:53:11.537Z,3.35
2023-05-02T00:54:14.424Z,3.17
2023-05-02T00:55:17.545Z,3.40
2023-05-02T00:56:19.870Z,3.50
2023-05-02T00:57:23.142Z,3.63
2023-05-02T00:58:26.173Z,3.50
2023-05-02T00:59:28.804Z,3.38
2023-05-02T01:01:18.503Z,3.88
2023-05-02T01:02:49.476Z,3.50
2023-05-02T01:04:31.334Z,3.90
2023-05-02T01:06:42.373Z,3.45
2023-05-02T01:08:12.913Z,3.17
2023-05-02T01:09:27.774Z,3.65
2023-05-02T01:11:12.315Z,3.42
2023-05-02T01:12:29.156Z,3.75
2023-05-02T01:13:35.609Z,3.85
2023-05-02T01:14:50.629Z,3.67
2023-05-02T01:15:56.970Z,3.53
2023-05-02T01:17:04.931Z,3.80
2023-05-02T01:18:13.194Z,3.35
2023-05-02T01:19:33.700Z,3.53
2023-05-02T01:20:38.726Z,3.58
2023-05-02T01:21:41.396Z,3.33
2023-05-02T01:22:45.098Z,3.60
2023-05-02T01:23:53.385Z,3.63
2023-05-02T01:25:18.661Z,3.80
2023-05-02T01:26:30.000Z,3.65
2023-05-02T01:27:50.744Z,3.40
2023-05-02T01:28:58.915Z,3.13
2023-05-02T01:30:02.867Z,3.45
2023-05-02T01:31:06.547Z,3.13
2023-05-02T01:32:09.506Z,3.13
2023-05-02T01:33:14.552Z,3.50
2023-05-02T01:34:19.525Z,3.72
2023-05-02T01:35:22.749Z,3.38
2023-05-02T01:36:27.384Z,3.00
2023-05-02T01:37:29.985Z,3.30
2023-05-02T01:38:33.274Z,3.60
2023-05-02T01:39:38.201Z,3.58
2023-05-02T01:40:41.595Z,3.38
2023-05-02T01:41:44.182Z,3.53
2023-05-02T01:42:48.822Z,3.53
2023-05-02T01:43:51.691Z,3.45
2023-05-02T01:44:55.082Z,2.90
2023-05-02T01:45:58.093Z,3.35
2023-05-02T01:47:03.718Z,3.25
2023-05-02T01:48:07.066Z,3.10
2023-05-02T01:49:09.584Z,3.50
2023-05-02T01:50:16.942Z,3.58
2023-05-02T01:51:19.839Z,3.67
2023-05-02T01:52:23.387Z,3.40
2023-05-02T01:53:29.114Z,4.05
2023-05-02T01:54:32.489Z,3.75
2023-05-02T01:55:36.460Z,3.38
2023-05-02T01:56:39.833Z,3.58
2023-05-02T01:57:43.925Z,3.45
2023-05-02T01:59:49.810Z,3.33
2023-05-02T02:00:52.460Z,3.65
2023-05-02T02:01:55.971Z,3.67
2023-05-02T02:02:58.837Z,3.17
2023-05-02T02:04:01.874Z,3.58
2023-05-02T02:05:07.978Z,3.85
2023-05-02T02:06:11.870Z,3.72
2023-05-02T02:07:14.884Z,3.80
2023-05-02T02:08:17.716Z,3.50
2023-05-02T02:09:20.984Z,3.33
2023-05-02T02:10:27.560Z,3.45
2023-05-02T02:11:36.297Z,3.65
2023-05-02T02:13:01.548Z,3.53
2023-05-02T02:14:08.207Z,4.07
2023-05-02T02:15:18.787Z,4.15
2023-05-02T02:16:25.241Z,4.10
2023-05-02T02:17:38.067Z,5.20
2023-05-02T02:18:40.468Z,3.67
2023-05-02T02:19:43.679Z,3.97
2023-05-02T02:20:47.232Z,3.30
2023-05-02T02:21:50.464Z,3.50
2023-05-02T02:22:53.855Z,3.30
2023-05-02T02:23:58.464Z,3.25
2023-05-02T02:25:00.976Z,3.53
2023-05-02T02:26:04.026Z,3.67
2023-05-02T02:27:06.483Z,3.88
2023-05-02T02:28:09.795Z,4.05
2023-05-02T02:29:12.335Z,3.70
2023-05-02T02:30:16.715Z,4.35
2023-05-02T02:31:19.141Z,3.85
2023-05-02T02:32:21.574Z,3.95
2023-05-02T02:33:26.389Z,3.53
2023-05-02T02:34:28.971Z,3.97
2023-05-02T02:35:38.964Z,4.10
2023-05-02T02:36:44.186Z,3.58
2023-05-02T02:38:11.075Z,4.22
2023-05-02T02:39:31.593Z,5.00
2023-05-02T02:40:52.106Z,4.72
2023-05-02T02:42:13.794Z,4.00
2023-05-02T02:43:24.723Z,4.20
2023-05-02T02:44:38.458Z,4.28
2023-05-02T02:45:59.146Z,4.68
2023-05-02T02:47:22.537Z,3.88
2023-05-02T02:48:41.293Z,4.47
2023-05-02T02:50:11.112Z,4.18
2023-05-02T02:51:16.228Z,3.78
2023-05-02T02:52:58.081Z,4.15
2023-05-02T02:55:44.467Z,4.40
2023-05-02T02:56:49.555Z,4.00
2023-05-02T02:58:02.725Z,4.43
2023-05-02T02:59:16.475Z,4.13
2023-05-02T03:00:21.605Z,4.22
2023-05-02T03:01:25.838Z,4.28
2023-05-02T03:02:32.279Z,5.45
2023-05-02T03:03:34.830Z,4.25
2023-05-02T03:04:42.735Z,4.05
2023-05-02T03:05:45.231Z,4.63
2023-05-02T03:06:48.209Z,4.18
2023-05-02T03:07:51.473Z,4.75
2023-05-02T03:08:56.654Z,4.35
2023-05-02T03:10:06.030Z,4.47
2023-05-02T03:11:11.022Z,4.30
2023-05-02T03:12:14.322Z,4.68
2023-05-02T03:14:20.382Z,4.18
2023-05-02T03:15:35.055Z,5.03
2023-05-02T03:16:39.539Z,4.07
2023-05-02T03:17:46.133Z,5.18
2023-05-02T03:18:48.646Z,4.63
2023-05-02T03:19:51.090Z,4.82
2023-05-02T03:20:53.600Z,5.20
2023-05-02T03:21:56.748Z,4.57
2023-05-02T03:22:59.169Z,4.30
2023-05-02T03:24:02.883Z,5.03
2023-05-02T03:25:06.085Z,4.70
2023-05-02T03:26:08.356Z,4.90
2023-05-02T03:27:11.581Z,4.43
2023-05-02T03:28:17.741Z,4.75
2023-05-02T03:29:23.501Z,4.75
2023-05-02T03:30:25.917Z,5.15
2023-05-02T03:31:28.640Z,4.55
2023-05-02T03:32:31.430Z,4.40
2023-05-02T03:33:33.855Z,4.40
2023-05-02T03:34:36.188Z,4.47
2023-05-02T03:35:38.729Z,4.72
2023-05-02T03:36:41.172Z,4.70
2023-05-02T03:37:43.695Z,5.15
2023-05-02T03:38:46.816Z,5.20
2023-05-02T03:39:49.915Z,4.78
2023-05-02T03:40:52.521Z,4.45
2023-05-02T03:41:55.115Z,5.00
2023-05-02T03:42:59.685Z,4.50
2023-05-02T03:44:06.960Z,4.85
2023-05-02T03:45:10.484Z,5.13
2023-05-02T03:46:13.128Z,4.70
2023-05-02T03:47:19.454Z,4.97
2023-05-02T03:48:22.457Z,4.85
2023-05-02T03:49:25.095Z,5.00
2023-05-02T03:50:29.207Z,5.00
2023-05-02T03:51:33.976Z,5.28
2023-05-02T03:52:36.698Z,4.53
2023-05-02T03:53:46.971Z,4.20
2023-05-02T03:54:49.305Z,5.15
2023-05-02T03:55:52.057Z,5.22
2023-05-02T03:57:01.916Z,5.63
2023-05-02T03:58:07.164Z,5.38
2023-05-02T03:59:10.032Z,4.45
2023-05-02T04:00:13.496Z,4.95
2023-05-02T04:01:20.278Z,4.75
2023-05-02T04:02:25.601Z,4.78
2023-05-02T04:03:29.957Z,5.20
2023-05-02T04:04:35.834Z,4.80
2023-05-02T04:05:38.163Z,5.00
2023-05-02T04:06:40.701Z,5.30
2023-05-02T04:07:44.779Z,5.75
2023-05-02T04:08:47.498Z,5.82
2023-05-02T04:09:50.318Z,5.70
2023-05-02T04:10:53.207Z,6.30
2023-05-02T04:11:55.936Z,6.13
2023-05-02T04:12:58.660Z,6.70
2023-05-02T04:14:01.621Z,5.78
2023-05-02T04:15:04.687Z,5.15
2023-05-02T04:16:07.405Z,5.30
2023-05-02T04:18:18.408Z,5.22
2023-05-02T04:19:21.487Z,5.45
2023-05-02T04:20:24.557Z,7.82
2023-05-02T04:21:28.998Z,6.45
2023-05-02T04:22:32.503Z,6.30
2023-05-02T04:23:39.338Z,5.72
2023-05-02T04:24:41.842Z,5.93
2023-05-02T04:25:54.478Z,5.85
2023-05-02T04:27:06.859Z,6.07
2023-05-02T04:28:10.054Z,4.88
2023-05-02T04:29:13.738Z,5.70
2023-05-02T04:30:17.708Z,5.10
2023-05-02T04:31:28.340Z,5.07
2023-05-02T04:32:31.924Z,5.18
2023-05-02T04:33:35.465Z,5.25
2023-05-02T04:34:38.344Z,5.35
2023-05-02T04:35:41.433Z,4.97
2023-05-02T04:36:47.163Z,4.68
2023-05-02T04:37:55.180Z,5.07
2023-05-02T04:38:57.912Z,5.15
2023-05-02T04:40:01.386Z,5.68
2023-05-02T04:41:09.014Z,5.43
2023-05-02T04:42:17.174Z,5.40
2023-05-02T04:43:30.083Z,5.40
2023-05-02T04:44:36.305Z,5.10
2023-05-02T04:45:38.700Z,5.75
2023-05-02T04:46:46.335Z,5.63
2023-05-02T04:47:49.192Z,5.95
2023-05-02T04:48:51.743Z,6.03
2023-05-02T04:49:55.206Z,5.82
2023-05-02T04:50:57.678Z,5.60
2023-05-02T04:52:00.910Z,5.63
2023-05-02T04:53:03.218Z,5.65
2023-05-02T04:54:07.015Z,6.53
2023-05-02T04:55:09.787Z,6.50
2023-05-02T04:56:13.295Z,6.75
2023-05-02T04:57:15.860Z,6.57
2023-05-02T04:58:22.416Z,7.28
2023-05-02T04:59:32.120Z,7.75
2023-05-02T05:00:36.749Z,9.10
2023-05-02T05:01:40.283Z,9.55
2023-05-02T05:02:44.670Z,10.07
2023-05-02T05:03:49.337Z,9.65
2023-05-02T05:04:53.272Z,9.85
2023-05-02T05:05:55.702Z,9.30
2023-05-02T05:06:59.188Z,9.13
2023-05-02T05:08:03.936Z,8.70
2023-05-02T05:09:09.454Z,7.05
2023-05-02T05:10:12.648Z,6.35
2023-05-02T05:11:21.610Z,6.93
2023-05-02T05:12:24.689Z,6.00
2023-05-02T05:13:27.282Z,5.63
2023-05-02T05:14:31.518Z,6.20
2023-05-02T05:15:33.932Z,5.47
2023-05-02T05:16:37.771Z,5.28
2023-05-02T05:17:40.877Z,5.82
2023-05-02T05:18:44.193Z,5.80
2023-05-02T05:19:49.989Z,5.70
2023-05-02T05:20:52.366Z,5.43
2023-05-02T05:21:55.966Z,5.60
2023-05-02T05:23:05.818Z,6.10
2023-05-02T05:24:08.348Z,5.53
2023-05-02T05:25:10.933Z,5.80
2023-05-02T05:26:15.697Z,5.72
2023-05-02T05:27:22.196Z,5.60
2023-05-02T05:28:25.126Z,6.18
2023-05-02T05:29:27.464Z,5.97
2023-05-02T05:30:32.820Z,5.53
2023-05-02T05:31:36.440Z,5.80
2023-05-02T05:32:40.420Z,5.82
2023-05-02T05:33:43.123Z,5.32
2023-05-02T05:34:46.448Z,6.05
2023-05-02T05:35:49.252Z,5.75
2023-05-02T05:36:52.123Z,6.20
2023-05-02T05:37:55.513Z,5.82
2023-05-02T05:38:57.904Z,6.05
2023-05-02T05:40:01.591Z,6.22
2023-05-02T05:41:05.730Z,6.38
2023-05-02T05:42:10.026Z,6.35
2023-05-02T05:43:14.117Z,6.00
2023-05-02T05:44:16.471Z,6.53
2023-05-02T05:45:19.888Z,6.18
2023-05-02T05:46:22.499Z,6.97
2023-05-02T05:47:29.981Z,5.78
2023-05-02T05:48:32.784Z,6.28
2023-05-02T05:49:38.516Z,5.93
2023-05-02T05:50:43.935Z,6.35
2023-05-02T05:51:47.810Z,5.78
2023-05-02T05:52:51.896Z,7.43
2023-05-02T05:53:54.593Z,6.78
2023-05-02T05:54:57.079Z,6.22
2023-05-02T05:56:09.965Z,6.18
2023-05-02T05:57:13.839Z,5.63
2023-05-02T05:58:16.957Z,5.82
2023-05-02T05:59:20.755Z,6.13
2023-05-02T06:00:23.826Z,5.50
2023-05-02T06:02:30.930Z,6.00
2023-05-02T06:03:33.781Z,6.72
2023-05-02T06:04:36.590Z,5.85
2023-05-02T06:05:39.096Z,6.40
2023-05-02T06:06:41.466Z,5.63
2023-05-02T06:07:43.839Z,5.75
2023-05-02T06:08:46.368Z,6.10
2023-05-02T06:09:50.281Z,5.97
2023-05-02T06:10:53.239Z,5.82
2023-05-02T06:11:56.182Z,5.95
2023-05-02T06:12:59.434Z,5.60
2023-05-02T06:14:06.758Z,6.30
2023-05-02T06:15:09.440Z,5.53
2023-05-02T06:16:11.968Z,6.25
2023-05-02T06:17:14.459Z,5.50
2023-05-02T06:18:17.236Z,5.22
2023-05-02T06:19:19.897Z,5.45
2023-05-02T06:20:22.314Z,5.43
2023-05-02T06:21:24.734Z,5.82
2023-05-02T06:22:27.313Z,5.68
2023-05-02T06:23:29.696Z,5.88
2023-05-02T06:24:31.868Z,5.28
2023-05-02T06:25:34.190Z,6.03
2023-05-02T06:26:36.893Z,6.13
2023-05-02T06:27:39.434Z,5.50
2023-05-02T06:28:42.154Z,5.80
2023-05-02T06:29:44.697Z,5.57
2023-05-02T06:30:46.983Z,5.63
2023-05-02T06:31:51.270Z,6.10
2023-05-02T06:32:53.992Z,5.78
2023-05-02T06:33:56.521Z,5.88
2023-05-02T06:34:58.880Z,5.53
2023-05-02T06:36:02.133Z,5.78
2023-05-02T06:37:04.975Z,6.20
2023-05-02T06:38:07.531Z,6.05
2023-05-02T06:39:09.882Z,5.85
2023-05-02T06:40:13.684Z,5.70
2023-05-02T06:42:20.664Z,5.53
2023-05-02T06:43:23.058Z,5.93
2023-05-02T06:44:25.516Z,5.60
2023-05-02T06:45:28.028Z,6.28
2023-05-02T06:46:31.683Z,5.88
2023-05-02T06:47:34.233Z,6.40
2023-05-02T06:48:36.839Z,6.15
2023-05-02T06:49:39.733Z,5.97
2023-05-02T06:50:42.860Z,5.88
2023-05-02T06:51:45.326Z,6.05
2023-05-02T06:52:47.912Z,5.47
2023-05-02T06:53:50.746Z,6.72
2023-05-02T06:54:52.968Z,5.85
2023-05-02T06:55:55.481Z,6.40
2023-05-02T06:56:57.827Z,6.82
2023-05-02T06:58:00.938Z,6.18
2023-05-02T06:59:03.345Z,6.57
2023-05-02T07:00:07.048Z,6.85
2023-05-02T07:01:09.679Z,6.22
2023-05-02T07:02:12.242Z,6.18
2023-05-02T07:03:14.819Z,7.05
2023-05-02T07:04:17.668Z,7.13
2023-05-02T07:05:20.200Z,7.13
2023-05-02T07:06:22.688Z,6.18
2023-05-02T07:07:25.089Z,7.10
2023-05-02T07:08:28.016Z,6.70
2023-05-02T07:09:30.343Z,6.65
2023-05-02T07:10:32.592Z,6.43
2023-05-02T07:11:35.117Z,5.43
2023-05-02T07:12:39.988Z,6.00
2023-05-02T07:13:43.686Z,6.10
2023-05-02T07:14:47.114Z,6.18
2023-05-02T07:15:49.921Z,5.55
2023-05-02T07:16:53.910Z,6.18
2023-05-02T07:17:56.295Z,6.15
2023-05-02T07:18:58.631Z,6.30
2023-05-02T07:20:01.279Z,5.85
2023-05-02T07:21:04.007Z,6.93
2023-05-02T07:22:07.354Z,7.35
2023-05-02T07:23:09.756Z,6.38
2023-05-02T07:24:12.278Z,6.30
2023-05-02T07:25:14.923Z,6.45
2023-05-02T07:26:19.094Z,6.65
2023-05-02T07:27:21.428Z,6.40
2023-05-02T07:28:23.978Z,6.40
2023-05-02T07:29:26.920Z,6.90
2023-05-02T07:30:29.397Z,6.22
2023-05-02T07:31:31.969Z,6.07
2023-05-02T07:32:34.376Z,6.00
2023-05-02T07:33:37.106Z,6.10
2023-05-02T07:34:39.429Z,6.18
2023-05-02T07:35:41.761Z,7.10
2023-05-02T07:36:44.093Z,6.63
2023-05-02T07:37:46.537Z,6.70
2023-05-02T07:38:49.460Z,6.90
2023-05-02T07:39:52.374Z,6.07
2023-05-02T07:40:58.356Z,6.43
2023-05-02T07:42:00.792Z,7.00
2023-05-02T07:43:03.575Z,6.90
2023-05-02T07:44:05.930Z,6.35
2023-05-02T07:45:09.110Z,6.10
2023-05-02T07:46:11.517Z,5.75
2023-05-02T07:47:13.979Z,6.43
2023-05-02T07:48:16.711Z,6.40
2023-05-02T07:49:20.450Z,6.60
2023-05-02T07:51:26.987Z,6.25
2023-05-02T07:52:29.572Z,6.10
2023-05-02T07:53:32.152Z,6.38
2023-05-02T07:54:35.633Z,6.35
2023-05-02T07:55:38.565Z,6.63
2023-05-02T07:56:41.059Z,6.15
2023-05-02T07:57:43.518Z,6.07
2023-05-02T07:58:45.970Z,5.97
2023-05-02T07:59:48.551Z,5.82
2023-05-02T08:00:51.010Z,6.25
2023-05-02T08:01:53.914Z,5.30
2023-05-02T08:02:56.470Z,5.72
2023-05-02T08:03:59.400Z,6.22
2023-05-02T08:05:02.490Z,6.75
2023-05-02T08:06:05.380Z,6.20
2023-05-02T08:07:08.991Z,6.78
2023-05-02T08:08:11.301Z,6.07
2023-05-02T08:09:13.802Z,6.72
2023-05-02T08:10:16.434Z,6.88
2023-05-02T08:11:21.858Z,6.03
2023-05-02T08:12:25.104Z,6.30
2023-05-02T08:13:27.561Z,6.00
2023-05-02T08:14:29.906Z,5.93
2023-05-02T08:15:32.302Z,5.68
2023-05-02T08:16:34.745Z,6.05
2023-05-02T08:17:37.545Z,6.70
2023-05-02T08:18:41.403Z,5.47
2023-05-02T08:19:43.829Z,6.10
2023-05-02T08:20:48.528Z,5.75
2023-05-02T08:21:51.469Z,5.20
2023-05-02T08:22:53.876Z,6.15
2023-05-02T08:23:58.821Z,5.97
2023-05-02T08:25:01.131Z,5.63
2023-05-02T08:26:03.825Z,5.70
2023-05-02T08:27:06.934Z,6.35
2023-05-02T08:28:09.402Z,5.38
2023-05-02T08:29:12.759Z,5.93
2023-05-02T08:30:15.399Z,6.38
2023-05-02T08:31:20.964Z,5.78
2023-05-02T08:32:24.209Z,5.72
2023-05-02T08:33:26.755Z,5.47
2023-05-02T08:34:29.107Z,5.65
2023-05-02T08:35:31.934Z,5.45
2023-05-02T08:36:34.359Z,5.28
2023-05-02T08:37:37.271Z,5.88
2023-05-02T08:38:39.781Z,5.90
2023-05-02T08:39:42.378Z,5.50
2023-05-02T08:40:45.030Z,5.80
2023-05-02T08:41:47.649Z,6.05
2023-05-02T08:42:51.284Z,5.32
2023-05-02T08:43:53.747Z,7.10
2023-05-02T08:44:55.962Z,6.22
2023-05-02T08:46:00.195Z,5.38
2023-05-02T08:47:03.543Z,6.03
2023-05-02T08:48:10.809Z,5.30
2023-05-02T08:49:16.149Z,5.43
2023-05-02T08:50:19.538Z,5.75
2023-05-02T08:51:23.576Z,6.15
2023-05-02T08:52:27.100Z,5.70
2023-05-02T08:53:34.200Z,6.40
2023-05-02T08:54:38.836Z,5.82
2023-05-02T08:55:42.998Z,5.82
2023-05-02T08:56:46.757Z,5.75
2023-05-02T08:57:49.975Z,5.60
2023-05-02T08:58:52.566Z,5.72
2023-05-02T08:59:55.034Z,5.70
2023-05-02T09:01:02.808Z,5.70
2023-05-02T09:02:21.152Z,5.40
2023-05-02T09:03:34.429Z,5.75
2023-05-02T09:04:41.595Z,5.15
2023-05-02T09:05:46.866Z,5.22
2023-05-02T09:06:49.514Z,5.43
2023-05-02T09:07:52.511Z,5.55
2023-05-02T09:08:55.304Z,5.38
2023-05-02T09:09:58.460Z,5.80
2023-05-02T09:11:02.824Z,5.70
2023-05-02T09:12:08.473Z,5.43
2023-05-02T09:13:36.402Z,5.53
2023-05-02T09:14:38.928Z,5.55
2023-05-02T09:15:41.192Z,5.68
2023-05-02T09:16:43.945Z,5.32
2023-05-02T09:17:48.434Z,5.13
2023-05-02T09:18:55.890Z,5.57
2023-05-02T09:20:01.968Z,5.70
2023-05-02T09:21:17.912Z,5.70
2023-05-02T09:22:25.887Z,6.03
2023-05-02T09:23:45.782Z,5.00
2023-05-02T09:24:54.954Z,6.25
2023-05-02T09:25:57.425Z,6.15
2023-05-02T09:27:05.133Z,5.43
2023-05-02T09:28:07.638Z,5.65
2023-05-02T09:29:10.094Z,6.35
2023-05-02T09:30:27.396Z,6.10
2023-05-02T09:31:55.068Z,5.78
2023-05-02T09:32:58.968Z,6.22
2023-05-02T09:34:12.873Z,5.95
2023-05-02T09:35:23.722Z,5.70
2023-05-02T09:36:26.355Z,5.72
2023-05-02T09:37:35.157Z,5.55
2023-05-02T09:38:39.010Z,5.90
2023-05-02T09:39:41.596Z,5.82
2023-05-02T09:40:56.035Z,6.15
2023-05-02T09:41:59.223Z,6.07
2023-05-02T09:43:16.054Z,6.60
2023-05-02T09:44:25.354Z,6.07
2023-05-02T09:45:27.881Z,6.30
2023-05-02T09:46:40.854Z,6.00
2023-05-02T09:47:45.135Z,5.75
2023-05-02T09:48:57.906Z,6.65
2023-05-02T09:50:00.260Z,5.90
2023-05-02T09:51:02.842Z,6.90
2023-05-02T09:52:16.155Z,6.82
2023-05-02T09:53:18.688Z,6.38
2023-05-02T09:54:37.120Z,5.93
2023-05-02T09:55:39.876Z,5.78
2023-05-02T09:56:56.716Z,6.28
2023-05-02T09:58:01.140Z,6.10
2023-05-02T09:59:14.854Z,6.15
2023-05-02T10:00:19.837Z,5.95
2023-05-02T10:01:27.419Z,5.38
2023-05-02T10:02:30.919Z,5.82
2023-05-02T10:03:37.518Z,5.85
2023-05-02T10:04:40.395Z,5.75
2023-05-02T10:05:44.526Z,6.15
2023-05-02T10:06:47.593Z,5.55
2023-05-02T10:07:50.207Z,5.05
2023-05-02T10:08:52.596Z,6.60
2023-05-02T10:09:55.611Z,6.13
2023-05-02T10:10:59.251Z,6.03
2023-05-02T10:12:07.017Z,5.68
2023-05-02T10:13:09.748Z,5.68
2023-05-02T10:14:13.121Z,6.03
2023-05-02T10:15:17.251Z,6.30
2023-05-02T10:16:26.574Z,5.85
2023-05-02T10:17:40.464Z,6.38
2023-05-02T10:19:21.442Z,5.85
2023-05-02T10:20:28.675Z,6.28
2023-05-02T10:21:32.654Z,6.20
2023-05-02T10:22:36.370Z,5.45
2023-05-02T10:24:44.733Z,5.45
2023-05-02T10:25:47.973Z,5.45
2023-05-02T10:26:50.571Z,5.47
2023-05-02T10:27:53.653Z,6.57
2023-05-02T10:29:00.281Z,5.60
2023-05-02T10:30:04.906Z,5.82
2023-05-02T10:31:10.706Z,5.28
2023-05-02T10:32:15.347Z,5.32
2023-05-02T10:33:21.574Z,5.47
2023-05-02T10:34:24.353Z,5.28
2023-05-02T10:35:27.320Z,6.07
2023-05-02T10:36:32.760Z,5.45
2023-05-02T10:37:36.867Z,4.93
2023-05-02T10:38:40.977Z,5.10
2023-05-02T10:39:43.496Z,5.53
2023-05-02T10:40:56.197Z,4.70
2023-05-02T10:42:00.371Z,5.15
2023-05-02T10:43:04.178Z,5.20
2023-05-02T10:44:08.914Z,5.38
2023-05-02T10:45:30.709Z,5.15
2023-05-02T10:46:40.871Z,4.97
2023-05-02T10:47:43.887Z,5.25
2023-05-02T10:49:01.281Z,5.03
2023-05-02T10:50:05.365Z,5.13
2023-05-02T10:51:20.196Z,4.85
2023-05-02T10:52:38.554Z,5.68
2023-05-02T10:53:44.202Z,4.68
2023-05-02T10:54:49.298Z,5.20
2023-05-02T10:56:15.688Z,5.10
2023-05-02T10:57:18.633Z,5.28
2023-05-02T10:59:36.208Z,4.85
2023-05-02T11:00:38.762Z,4.85
2023-05-02T11:01:42.332Z,5.20
2023-05-02T11:04:05.149Z,4.47
2023-05-02T11:05:08.439Z,4.82
2023-05-02T11:06:11.087Z,4.55
2023-05-02T11:07:13.756Z,4.65
2023-05-02T11:08:16.793Z,4.40
2023-05-02T11:09:22.640Z,4.63
2023-05-02T11:10:27.049Z,4.35
2023-05-02T11:11:43.600Z,5.00
2023-05-02T11:12:52.896Z,4.65
2023-05-02T11:13:57.280Z,4.93
2023-05-02T11:14:59.897Z,4.88
2023-05-02T11:16:02.579Z,4.18
2023-05-02T11:17:05.486Z,4.53
2023-05-02T11:18:13.033Z,4.07
2023-05-02T11:19:16.357Z,4.18
2023-05-02T11:20:19.871Z,4.38
2023-05-02T11:21:28.973Z,4.25
2023-05-02T11:22:31.748Z,3.97
2023-05-02T11:23:37.072Z,4.00
2023-05-02T11:24:40.373Z,4.20
2023-05-02T11:25:47.077Z,4.57
2023-05-02T11:26:49.983Z,4.15
2023-05-02T11:27:52.416Z,4.72
2023-05-02T11:28:54.867Z,4.03
2023-05-02T11:30:01.476Z,4.22
2023-05-02T11:31:06.927Z,4.05
2023-05-02T11:32:09.484Z,4.22
2023-05-02T11:33:13.189Z,4.40
2023-05-02T11:34:15.566Z,4.05
2023-05-02T11:35:25.670Z,3.70
2023-05-02T11:36:53.347Z,4.18
2023-05-02T11:37:59.397Z,3.80
2023-05-02T11:39:03.530Z,3.65
2023-05-02T11:40:16.214Z,4.18
2023-05-02T11:41:18.898Z,4.15
2023-05-02T11:42:31.275Z,4.57
2023-05-02T11:43:33.961Z,3.53
2023-05-02T11:44:56.141Z,3.28
2023-05-02T11:46:00.203Z,4.20
2023-05-02T11:47:03.496Z,4.45
2023-05-02T11:48:07.206Z,3.88
2023-05-02T11:49:11.996Z,3.70
2023-05-02T11:50:16.118Z,3.95
2023-05-02T11:51:23.950Z,3.50
2023-05-02T11:52:26.358Z,3.90
2023-05-02T11:53:29.768Z,3.58
2023-05-02T11:54:32.482Z,5.55
2023-05-02T11:55:35.660Z,4.10
2023-05-02T11:57:41.100Z,3.67
2023-05-02T11:58:44.486Z,3.80
2023-05-02T11:59:54.230Z,6.40
2023-05-02T12:00:57.295Z,4.80
2023-05-02T12:01:59.752Z,4.13
2023-05-02T12:03:02.337Z,3.70
2023-05-02T12:04:10.519Z,3.25
2023-05-02T12:05:14.133Z,3.78
2023-05-02T12:06:21.258Z,3.38
2023-05-02T12:07:45.155Z,4.15
2023-05-02T12:08:49.295Z,3.50
2023-05-02T12:09:54.575Z,3.28
2023-05-02T12:10:57.311Z,2.95
2023-05-02T12:11:59.909Z,3.25
2023-05-02T12:13:06.641Z,4.07
2023-05-02T12:14:09.482Z,3.88
2023-05-02T12:15:12.881Z,3.50
2023-05-02T12:16:16.045Z,2.70
2023-05-02T12:18:25.690Z,2.92
2023-05-02T12:19:28.363Z,3.30
2023-05-02T12:20:30.830Z,3.42
2023-05-02T12:21:33.554Z,3.28
2023-05-02T12:22:36.341Z,3.30
2023-05-02T12:23:40.126Z,3.08
2023-05-02T12:24:43.661Z,3.20
2023-05-02T12:25:46.348Z,3.33
2023-05-02T12:26:49.758Z,2.80
2023-05-02T12:28:03.222Z,3.30
2023-05-02T12:29:07.867Z,3.60
2023-05-02T12:30:10.472Z,2.75
2023-05-02T12:31:13.243Z,3.40
2023-05-02T12:32:16.801Z,3.40
2023-05-02T12:33:19.190Z,4.57
2023-05-02T12:34:34.480Z,3.45
2023-05-02T12:35:36.977Z,3.50
2023-05-02T12:36:45.625Z,3.30
2023-05-02T12:37:47.955Z,3.40
2023-05-02T12:38:58.620Z,3.53
2023-05-02T12:40:02.496Z,3.55
2023-05-02T12:41:06.539Z,3.38
2023-05-02T12:42:13.358Z,3.20
2023-05-02T12:43:16.061Z,3.17
2023-05-02T12:44:36.584Z,3.30
2023-05-02T12:45:38.932Z,3.47
2023-05-02T12:47:07.999Z,3.83
2023-05-02T12:48:39.791Z,3.42
2023-05-02T12:50:00.942Z,3.20
2023-05-02T12:51:03.947Z,3.10
2023-05-02T12:52:06.276Z,3.17
2023-05-02T12:53:12.384Z,2.97
2023-05-02T12:54:21.920Z,3.10
2023-05-02T12:55:25.581Z,3.00
2023-05-02T12:57:35.977Z,2.70
2023-05-02T12:59:19.399Z,2.75
2023-05-02T13:00:22.002Z,2.65
2023-05-02T13:01:24.399Z,2.88
2023-05-02T13:02:27.343Z,3.55
2023-05-02T13:03:29.959Z,3.58
2023-05-02T13:04:43.428Z,3.95
2023-05-02T13:05:46.087Z,3.30
2023-05-02T13:06:48.646Z,3.20
2023-05-02T13:07:51.364Z,2.90
2023-05-02T13:08:53.718Z,2.55
2023-05-02T13:09:56.560Z,3.03
2023-05-02T13:10:59.104Z,3.08
2023-05-02T13:12:03.948Z,3.10
2023-05-02T13:13:07.964Z,3.08
2023-05-02T13:15:14.631Z,3.47
2023-05-02T13:16:17.134Z,3.75
2023-05-02T13:17:19.898Z,3.40
2023-05-02T13:18:22.408Z,3.00
2023-05-02T13:19:24.901Z,3.08
2023-05-02T13:20:27.210Z,2.60
2023-05-02T13:21:32.651Z,3.15
2023-05-02T13:22:35.396Z,3.40
2023-05-02T13:23:39.674Z,2.80
2023-05-02T13:24:42.848Z,3.03
2023-05-02T13:25:46.981Z,3.17
2023-05-02T13:26:49.726Z,3.35
2023-05-02T13:27:52.259Z,2.85
2023-05-02T13:28:54.623Z,3.00
2023-05-02T13:29:57.239Z,2.88
2023-05-02T13:31:00.013Z,2.55
2023-05-02T13:32:03.284Z,3.10
2023-05-02T13:33:06.107Z,2.70
2023-05-02T13:34:09.236Z,3.75
2023-05-02T13:35:14.173Z,3.15
2023-05-02T13:36:16.423Z,3.22
2023-05-02T13:37:18.720Z,3.05
2023-05-02T13:38:21.537Z,3.10
2023-05-02T13:39:23.856Z,2.97
2023-05-02T13:40:26.488Z,4.70
2023-05-02T13:41:28.849Z,5.05
2023-05-02T13:42:31.647Z,3.92
2023-05-02T13:43:34.182Z,3.10
2023-05-02T13:44:36.714Z,3.17
2023-05-02T13:45:39.620Z,3.08
2023-05-02T13:46:43.170Z,3.03
2023-05-02T13:47:45.564Z,3.22
2023-05-02T13:48:47.983Z,3.47
2023-05-02T13:49:50.741Z,3.00
2023-05-02T13:50:53.018Z,3.58
2023-05-02T13:51:55.329Z,3.67
2023-05-02T13:52:57.685Z,3.50
2023-05-02T13:54:00.362Z,2.90
2023-05-02T13:55:03.438Z,3.90
2023-05-02T13:56:06.126Z,2.97
2023-05-02T13:57:08.702Z,3.17
2023-05-02T13:58:11.345Z,2.90
2023-05-02T13:59:14.057Z,3.00
2023-05-02T14:00:17.010Z,2.90
2023-05-02T14:01:19.454Z,3.30
2023-05-02T14:02:22.686Z,3.25
2023-05-02T14:03:25.546Z,3.08
2023-05-02T14:04:28.666Z,2.75
2023-05-02T14:05:31.256Z,3.28
2023-05-02T14:06:33.870Z,3.22
2023-05-02T14:07:36.280Z,3.00
2023-05-02T14:08:38.635Z,3.42
2023-05-02T14:09:40.999Z,2.75
2023-05-02T14:10:43.645Z,2.63
2023-05-02T14:11:47.450Z,3.13
2023-05-02T14:12:50.050Z,3.03
2023-05-02T14:13:52.942Z,3.20
2023-05-02T14:14:55.327Z,3.00
2023-05-02T14:15:58.973Z,3.28
2023-05-02T14:17:02.858Z,3.20
2023-05-02T14:18:05.594Z,3.13
2023-05-02T14:19:08.066Z,3.17
2023-05-02T14:20:11.241Z,3.08
2023-05-02T14:21:13.651Z,3.38
2023-05-02T14:22:16.270Z,3.42
2023-05-02T14:23:18.571Z,3.30
2023-05-02T14:24:21.130Z,3.10
2023-05-02T14:25:24.798Z,3.10
2023-05-02T14:26:27.803Z,3.17
2023-05-02T14:27:30.232Z,2.92
2023-05-02T14:28:32.672Z,3.20
2023-05-02T14:29:48.708Z,3.15
2023-05-02T14:30:51.686Z,3.80
2023-05-02T14:31:54.253Z,3.72
2023-05-02T14:32:56.797Z,3.28
2023-05-02T14:33:59.193Z,3.42
2023-05-02T14:35:01.829Z,3.90
2023-05-02T14:36:04.758Z,3.90
2023-05-02T14:37:09.273Z,4.40
2023-05-02T14:38:14.589Z,4.05
2023-05-02T14:39:17.041Z,4.20
2023-05-02T14:40:19.583Z,4.55
2023-05-02T14:41:22.035Z,4.50
2023-05-02T14:42:24.633Z,4.28
2023-05-02T14:43:27.706Z,3.47
2023-05-02T14:44:31.003Z,3.53